Time;durP1;ratioP1;P1;durP2;ratioP2;P2;SDS_P1;SDS_P2;PMS_P1;PMS_P2;Temp;Humidity;BMP_temperature;BMP_pressure;BME280_temperature;BME280_humidity;BME280_pressure;Samples;Min_cycle;Max_cycle;Signal;HPM_P1;HPM_P2
2021/01/05 00:00:30;;;;;;;13.30;8.43;;;;;;;4.42;75.49;99893.25;6186792;23;20028;-83
2021/01/05 00:02:56;;;;;;;10.25;7.82;;;;;;;4.43;75.42;99894.97;6186328;23;20403;-83
2021/01/05 00:05:23;;;;;;;11.73;8.02;;;;;;;4.43;75.56;99891.50;6160279;23;20068;-83
2021/01/05 00:07:50;;;;;;;11.30;7.88;;;;;;;4.44;75.38;99893.19;6186557;23;20391;-83
2021/01/05 00:10:18;;;;;;;11.85;7.95;;;;;;;4.45;75.21;99891.47;6186893;23;20029;-83
2021/01/05 00:12:44;;;;;;;11.43;7.78;;;;;;;4.44;75.15;99885.38;6186295;23;20029;-83
2021/01/05 00:15:12;;;;;;;11.23;7.80;;;;;;;4.43;75.09;99889.75;6186759;23;20029;-83
2021/01/05 00:17:38;;;;;;;11.13;7.13;;;;;;;4.42;75.05;99887.19;6187190;23;20126;-84
2021/01/05 00:20:20;;;;;;;10.65;7.05;;;;;;;4.38;74.40;99893.41;6186352;23;20467;-83
2021/01/05 00:22:46;;;;;;;11.93;7.97;;;;;;;4.41;75.27;99890.72;6186966;23;20364;-83
2021/01/05 00:25:14;;;;;;;11.30;7.55;;;;;;;4.41;75.07;99893.31;6186687;23;20028;-83
2021/01/05 00:27:41;;;;;;;11.40;7.80;;;;;;;4.42;75.39;99895.00;6160538;23;20056;-83
2021/01/05 00:30:16;;;;;;;10.23;7.32;;;;;;;4.41;74.82;99882.88;6161358;23;20021;-83
2021/01/05 00:32:45;;;;;;;10.80;6.97;;;;;;;4.41;75.27;99890.72;6186171;23;20455;-83
2021/01/05 00:35:24;;;;;;;9.95;6.80;;;;;;;4.40;75.11;99889.84;6186210;23;20464;-83
2021/01/05 00:37:51;;;;;;;12.48;7.50;;;;;;;4.41;75.18;99894.16;6186714;23;20029;-83
2021/01/05 00:40:21;;;;;;;14.82;9.35;;;;;;;4.40;75.14;99889.84;6186447;23;20044;-83
2021/01/05 00:42:47;;;;;;;15.40;8.75;;;;;;;4.41;75.28;99886.31;6185934;23;20025;-83
2021/01/05 00:45:21;;;;;;;13.00;7.82;;;;;;;4.40;74.75;99891.59;6186382;23;20025;-83
2021/01/05 00:47:47;;;;;;;12.25;8.00;;;;;;;4.40;75.03;99884.63;6186172;23;20029;-83
2021/01/05 00:50:14;;;;;;;11.35;7.18;;;;;;;4.42;75.04;99892.41;6186310;23;20035;-83
2021/01/05 00:52:40;;;;;;;11.90;7.55;;;;;;;4.41;75.09;99882.88;6186301;23;20399;-83
2021/01/05 00:55:07;;;;;;;12.60;8.27;;;;;;;4.40;74.92;99896.78;6186496;23;20025;-83
2021/01/05 00:57:33;;;;;;;10.57;8.38;;;;;;;4.40;74.83;99899.41;6160225;23;20029;-83
2021/01/05 00:59:59;;;;;;;10.52;7.20;;;;;;;4.37;75.13;99905.56;6185809;23;20032;-83
2021/01/05 01:02:26;;;;;;;12.50;7.88;;;;;;;4.37;74.98;99905.56;6186181;23;20096;-84
2021/01/05 01:04:52;;;;;;;11.70;7.68;;;;;;;4.36;75.33;99903.84;6185992;23;20029;-83
2021/01/05 01:07:18;;;;;;;13.68;8.02;;;;;;;4.37;75.01;99902.13;6186229;23;20017;-83
2021/01/05 01:09:44;;;;;;;10.32;7.60;;;;;;;4.35;75.07;99902.16;6185891;23;20025;-83
2021/01/05 01:12:17;;;;;;;13.73;7.78;;;;;;;4.34;74.76;99907.41;6185679;23;20032;-84
2021/01/05 01:14:45;;;;;;;9.82;6.90;;;;;;;4.36;74.78;99903.00;6186278;23;20039;-84
2021/01/05 01:17:11;;;;;;;11.18;7.70;;;;;;;4.36;75.06;99914.28;6186332;23;20025;-83
2021/01/05 01:19:37;;;;;;;13.15;8.18;;;;;;;4.36;74.97;99910.81;6160090;23;20021;-83
2021/01/05 01:22:04;;;;;;;13.57;8.88;;;;;;;4.35;74.81;99906.50;6186040;23;20025;-83
2021/01/05 01:24:30;;;;;;;13.65;8.50;;;;;;;4.35;74.97;99909.13;6185460;23;20083;-83
2021/01/05 01:27:09;;;;;;;12.48;8.10;;;;;;;4.33;75.12;99909.16;6186154;23;20021;-83
2021/01/05 01:29:36;;;;;;;12.40;8.00;;;;;;;4.34;75.26;99904.81;6185686;23;20029;-83
2021/01/05 01:32:03;;;;;;;13.90;8.55;;;;;;;4.34;75.00;99904.81;6185467;23;20510;-83
2021/01/05 01:34:29;;;;;;;12.52;8.05;;;;;;;4.34;74.90;99905.63;6185801;23;20025;-83
2021/01/05 01:37:16;;;;;;;10.68;7.63;;;;;;;4.30;74.27;99898.84;6185791;23;20021;-82
2021/01/05 01:39:45;;;;;;;14.23;7.53;;;;;;;4.31;74.71;99897.94;6185529;23;20025;-83
2021/01/05 01:42:14;;;;;;;13.82;8.02;;;;;;;4.29;74.55;99897.09;6185887;23;20079;-83
2021/01/05 01:44:41;;;;;;;12.07;7.93;;;;;;;4.27;74.84;99898.91;6186056;23;20080;-83
2021/01/05 01:47:15;;;;;;;17.25;8.93;;;;;;;4.23;74.36;99894.69;6185568;23;20048;-83
2021/01/05 01:49:45;;;;;;;15.55;8.82;;;;;;;4.20;74.77;99898.25;6186043;23;20083;-83
2021/01/05 01:52:13;;;;;;;15.52;9.25;;;;;;;4.21;74.77;99906.88;6185864;23;20036;-83
2021/01/05 01:54:42;;;;;;;14.52;8.50;;;;;;;4.18;75.06;99894.81;6185661;23;20506;-83
2021/01/05 01:57:45;;;;;;;15.40;8.77;;;;;;;4.14;74.50;99898.38;6186025;23;20017;-83
2021/01/05 02:00:22;;;;;;;15.68;8.93;;;;;;;4.14;74.57;99901.00;6185550;23;20452;-83
2021/01/05 02:03:20;;;;;;;16.55;8.57;;;;;;;4.11;74.63;99898.50;6185813;23;20029;-83
2021/01/05 02:06:03;;;;;;;15.02;8.23;;;;;;;4.12;74.92;99897.59;6185896;23;20025;-83
2021/01/05 02:08:36;;;;;;;16.30;8.35;;;;;;;4.11;75.01;99899.34;6159828;23;20100;-83
2021/01/05 02:11:12;;;;;;;;;;;;;;;4.14;74.84;99895.78;6186380;23;20095;-83
2021/01/05 02:14:06;;;;;;;15.38;8.23;;;;;;;4.16;74.86;99884.41;6185677;23;19966;-83
2021/01/05 02:16:59;;;;;;;17.73;9.23;;;;;;;4.15;75.14;99884.50;6185592;23;20021;-83
2021/01/05 02:19:31;;;;;;;14.93;8.83;;;;;;;4.15;75.07;99892.31;6185209;23;20021;-83
2021/01/05 02:22:25;;;;;;;10.23;5.75;;;;;;;4.15;75.06;99889.69;6185723;23;20241;-83
2021/01/05 02:25:32;;;;;;;16.42;8.90;;;;;;;4.12;74.76;99887.19;6185544;23;20025;-82
2021/01/05 02:28:03;;;;;;;14.50;8.35;;;;;;;4.15;75.16;99884.50;6141934;23;20325;-83
2021/01/05 02:30:39;;;;;;;18.75;8.98;;;;;;;4.13;75.23;99883.66;6185800;23;20024;-83
2021/01/05 02:33:30;;;;;;;14.68;8.65;;;;;;;4.13;74.97;99891.47;6185237;23;20032;-83
2021/01/05 02:36:06;;;;;;;18.33;9.25;;;;;;;4.14;75.39;99877.56;6186659;23;20017;-83
2021/01/05 02:39:07;;;;;;;21.77;10.10;;;;;;;4.12;75.29;99880.19;6187484;23;20029;-83
2021/01/05 02:41:57;;;;;;;24.48;9.80;;;;;;;4.12;75.10;99888.00;6139663;23;20041;-83
2021/01/05 02:45:00;;;;;;;17.70;9.23;;;;;;;4.11;75.13;99881.09;6171701;23;20134;-83
2021/01/05 02:47:57;;;;;;;17.67;8.68;;;;;;;4.12;75.20;99895.00;6161024;23;20071;-83
2021/01/05 02:50:47;;;;;;;16.05;9.02;;;;;;;4.12;74.72;99881.97;6187479;23;20356;-83
2021/01/05 02:53:38;;;;;;;20.80;9.40;;;;;;;4.14;75.34;99888.84;6187065;23;20028;-83
2021/01/05 02:56:49;;;;;;;19.50;9.25;;;;;;;4.14;75.06;99880.16;6187485;23;20028;-83
2021/01/05 02:59:21;;;;;;;17.67;8.48;;;;;;;4.18;75.52;99873.97;6136584;23;20083;-83
2021/01/05 03:02:14;;;;;;;12.23;6.20;;;;;;;4.16;75.17;99871.41;6187618;23;20075;-83
2021/01/05 03:04:40;;;;;;;20.27;9.40;;;;;;;4.16;75.37;99876.59;6187497;23;20021;-82
2021/01/05 03:07:13;;;;;;;16.83;8.73;;;;;;;4.13;74.92;99875.84;6186926;23;20452;-82
2021/01/05 03:09:39;;;;;;;;;;;;;;;4.13;74.78;99876.72;6161762;23;20020;-82
2021/01/05 03:12:28;;;;;;;15.23;7.80;;;;;;;4.12;75.05;99882.81;6185596;23;20247;-84
2021/01/05 03:15:25;;;;;;;14.23;8.32;;;;;;;4.07;75.19;99876.03;6186427;23;20021;-83
2021/01/05 03:17:58;;;;;;;17.08;9.05;;;;;;;4.08;75.47;99888.16;6187819;23;20017;-83
2021/01/05 03:20:31;;;;;;;17.20;9.32;;;;;;;4.06;75.76;99875.16;6186965;23;20032;-82
2021/01/05 03:23:04;;;;;;;16.48;9.70;;;;;;;4.06;75.69;99879.50;6186907;23;20452;-83
2021/01/05 03:25:34;;;;;;;16.52;8.73;;;;;;;4.07;75.63;99879.47;6186950;23;20032;-83
2021/01/05 03:28:03;;;;;;;16.58;9.60;;;;;;;4.07;75.52;99876.03;6187614;23;20356;-82
2021/01/05 03:30:41;;;;;;;18.63;11.02;;;;;;;4.05;75.40;99878.69;6187471;23;20021;-83
2021/01/05 03:33:08;;;;;;;18.52;10.35;;;;;;;4.10;76.08;99887.22;6187404;23;20080;-83
2021/01/05 03:35:34;;;;;;;18.40;10.23;;;;;;;4.11;76.03;99873.28;6187162;23;20025;-83
2021/01/05 03:38:01;;;;;;;18.45;10.15;;;;;;;4.13;76.14;99881.06;6161407;23;20029;-83
2021/01/05 03:40:42;;;;;;;18.92;10.93;;;;;;;4.11;75.89;99883.72;6186668;23;20017;-89
2021/01/05 03:43:13;;;;;;;20.52;10.80;;;;;;;4.14;75.82;99883.63;6161100;23;20025;-88
2021/01/05 03:45:48;;;;;;;22.75;11.85;;;;;;;4.17;75.87;99877.47;6162054;23;20017;-88
2021/01/05 03:48:14;;;;;;;19.27;10.73;;;;;;;4.16;75.90;99866.19;6161075;23;20083;-89
2021/01/05 03:51:13;;;;;;;22.45;10.85;;;;;;;4.16;75.37;99868.78;6155453;23;20483;-87
2021/01/05 03:53:52;;;;;;;22.08;11.18;;;;;;;4.16;75.44;99874.00;6157229;23;20108;-88
2021/01/05 03:57:09;;;;;;;22.38;11.48;;;;;;;4.15;75.06;99877.50;5981920;24;20091;-88
2021/01/05 03:59:52;;;;;;;20.95;10.88;;;;;;;4.18;75.41;99876.56;5982395;23;20092;-87
2021/01/05 04:02:42;;;;;;;18.15;10.27;;;;;;;4.15;75.12;99877.50;5983042;24;20028;-89
2021/01/05 04:05:27;;;;;;;21.23;11.23;;;;;;;4.18;75.82;99884.38;5972548;23;20028;-87
2021/01/05 04:08:54;;;;;;;19.00;10.88;;;;;;;4.14;75.06;99883.63;5982841;24;20081;-89
2021/01/05 04:11:39;;;;;;;21.08;10.45;;;;;;;4.20;75.81;99881.75;5970382;23;20375;-88
2021/01/05 04:14:23;;;;;;;22.20;11.10;;;;;;;4.20;75.73;99880.00;6041297;23;20018;-88
2021/01/05 04:16:59;;;;;;;25.65;12.48;;;;;;;4.17;75.05;99885.28;6131281;23;20376;-88
2021/01/05 04:22:32;;;;;;;18.23;10.95;;;;;;;4.18;75.19;99876.56;6157250;23;20028;-87
2021/01/05 04:25:25;;;;;;;21.50;10.98;;;;;;;4.20;74.96;99876.53;6130984;23;20060;-87
2021/01/05 04:28:23;;;;;;;23.33;11.52;;;;;;;4.23;75.41;99879.06;6088301;23;20076;-88
2021/01/05 04:31:15;;;;;;;20.40;11.27;;;;;;;4.22;75.07;99882.56;6131343;23;20025;-87
2021/01/05 04:33:51;;;;;;;19.60;11.02;;;;;;;4.24;75.58;99881.63;6132488;23;20367;-87
2021/01/05 04:36:55;;;;;;;19.95;10.52;;;;;;;4.21;75.12;99878.22;6131186;23;20018;-89
2021/01/05 04:43:43;;;;;;;20.90;11.70;;;;;;;4.23;74.88;99884.25;6149009;23;20100;-87
2021/01/05 04:47:35;;;;;;;19.42;10.93;;;;;;;4.24;75.20;99883.38;6037822;23;20018;-88
2021/01/05 04:50:48;;;;;;;21.38;10.40;;;;;;;4.24;74.96;99889.44;6006426;23;20068;-88
2021/01/05 04:58:18;;;;;;;22.50;10.00;;;;;;;4.23;74.99;99886.88;6015826;23;20022;-85
2021/01/05 05:01:39;;;;;;;19.08;10.13;;;;;;;4.23;74.90;99892.09;5959824;24;20035;-86
2021/01/05 05:04:51;;;;;;;15.82;9.25;;;;;;;4.19;75.34;99886.13;5925459;24;20025;-88
2021/01/05 05:07:53;;;;;;;18.45;9.68;;;;;;;4.21;75.44;99888.66;5926054;24;20024;-88
2021/01/05 05:10:56;;;;;;;21.73;10.93;;;;;;;4.21;75.25;99892.13;5929415;24;20047;-87
2021/01/05 05:14:04;;;;;;;21.33;11.43;;;;;;;4.20;75.33;99889.56;5930164;24;20024;-88
2021/01/05 05:17:00;;;;;;;18.55;10.98;;;;;;;4.23;75.27;99887.69;5917542;24;20028;-88
2021/01/05 05:24:10;;;;;;;18.42;10.68;;;;;;;4.24;75.07;99899.00;6007314;23;20042;-87
2021/01/05 05:27:33;;;;;;;18.83;10.35;;;;;;;4.24;75.17;99901.59;6038607;23;20022;-88
2021/01/05 05:30:41;;;;;;;19.50;12.48;;;;;;;4.24;75.31;99899.84;6063148;23;20113;-88
2021/01/05 05:33:24;;;;;;;17.45;10.63;;;;;;;4.24;75.20;99897.25;6065930;23;20034;-88
2021/01/05 05:36:37;;;;;;;16.60;10.07;;;;;;;4.25;75.21;99900.69;6111939;23;20025;-87
2021/01/05 05:40:00;;;;;;;14.38;9.52;;;;;;;4.25;74.93;99901.56;6156290;23;20022;-88
2021/01/05 05:43:13;;;;;;;15.82;10.20;;;;;;;4.27;75.03;99904.13;6130576;23;20057;-88
2021/01/05 05:46:55;;;;;;;16.17;10.07;;;;;;;4.25;75.21;99904.16;6134069;23;20044;-87
2021/01/05 05:50:18;;;;;;;15.20;8.90;;;;;;;4.27;74.92;99897.16;6080517;23;20356;-88
2021/01/05 05:53:23;;;;;;;13.93;8.88;;;;;;;4.30;75.16;99899.66;6155399;23;20024;-87
2021/01/05 05:56:11;;;;;;;15.27;10.73;;;;;;;4.32;75.04;99901.38;6128624;23;20053;-87
2021/01/05 05:58:42;;;;;;;16.50;10.13;;;;;;;4.32;75.59;99896.16;6129987;23;20026;-87
2021/01/05 06:01:16;;;;;;;14.63;9.32;;;;;;;4.32;75.61;99898.75;6130500;23;20029;-87
2021/01/05 06:04:23;;;;;;;14.95;9.52;;;;;;;4.32;75.43;99903.97;6113921;23;20025;-87
2021/01/05 06:07:06;;;;;;;16.00;9.30;;;;;;;4.32;74.96;99910.06;6153099;23;20356;-88
2021/01/05 06:09:36;;;;;;;14.55;9.10;;;;;;;4.35;75.49;99909.97;6130226;23;20128;-87
2021/01/05 06:12:30;;;;;;;15.93;9.05;;;;;;;4.33;75.11;99913.53;6157170;23;20021;-87
2021/01/05 06:15:20;;;;;;;15.77;9.88;;;;;;;4.35;75.09;99916.94;6133588;23;20096;-87
2021/01/05 06:17:51;;;;;;;15.13;8.45;;;;;;;4.37;75.59;99915.16;6133414;23;20022;-88
2021/01/05 06:20:56;;;;;;;13.63;9.30;;;;;;;4.35;74.80;99922.13;6157682;23;20462;-87
2021/01/05 06:31:40;;;;;;;16.90;10.70;;;;;;;4.41;74.93;99925.44;6054793;23;20082;-87
2021/01/05 06:34:48;;;;;;;15.60;10.38;;;;;;;4.43;74.83;99930.59;6156605;23;20039;-87
2021/01/05 06:42:02;;;;;;;16.75;11.07;;;;;;;4.42;74.83;99916.69;5981433;24;20032;-87
2021/01/05 06:44:50;;;;;;;16.55;11.15;;;;;;;4.47;75.18;99921.78;5892815;24;20025;-88
2021/01/05 06:47:39;;;;;;;15.57;10.60;;;;;;;4.42;74.76;99921.91;5954649;24;20056;-88
2021/01/05 06:54:04;;;;;;;15.13;9.65;;;;;;;4.47;75.19;99920.94;6069921;23;19957;-87
2021/01/05 07:06:21;;;;;;;19.33;12.32;;;;;;;4.34;74.67;99910.84;6217703;23;20051;-89
2021/01/05 07:08:51;;;;;;;19.27;12.82;;;;;;;4.37;75.38;99920.38;6181603;23;20021;-84
2021/01/05 07:11:18;;;;;;;19.33;11.90;;;;;;;4.36;75.40;99932.53;6192147;23;20021;-84
2021/01/05 07:13:44;;;;;;;18.83;12.65;;;;;;;4.35;75.38;99922.13;6217294;23;20024;-84
2021/01/05 07:16:10;;;;;;;16.30;12.02;;;;;;;4.34;75.65;99923.88;6217555;23;20024;-84
2021/01/05 07:18:36;;;;;;;18.00;12.43;;;;;;;4.35;75.55;99928.22;6217521;23;20020;-84
2021/01/05 07:21:02;;;;;;;18.45;12.13;;;;;;;4.37;75.42;99936.00;6190846;23;20346;-84
2021/01/05 07:23:28;;;;;;;17.70;12.13;;;;;;;4.35;75.32;99930.81;6216582;23;20028;-85
2021/01/05 07:25:54;;;;;;;18.92;11.90;;;;;;;4.36;75.20;99929.06;6217378;23;20027;-84
2021/01/05 07:28:20;;;;;;;15.25;10.75;;;;;;;4.36;75.16;99929.06;6191134;23;20027;-85
2021/01/05 07:30:46;;;;;;;17.65;11.20;;;;;;;4.35;75.19;99937.78;6217390;23;20020;-84
2021/01/05 07:33:12;;;;;;;17.65;12.13;;;;;;;4.35;75.21;99932.56;6190698;23;20020;-85
2021/01/05 07:35:38;;;;;;;16.70;11.68;;;;;;;4.33;75.41;99937.81;6190516;23;20490;-85
2021/01/05 07:38:04;;;;;;;18.58;12.40;;;;;;;4.34;75.70;99938.69;6217314;23;20020;-85
2021/01/05 07:40:30;;;;;;;20.67;12.65;;;;;;;4.35;75.41;99943.00;6217182;23;20028;-85
2021/01/05 07:42:57;;;;;;;17.98;12.38;;;;;;;4.35;75.41;99943.84;6217011;23;20099;-84
2021/01/05 07:45:23;;;;;;;17.25;11.55;;;;;;;4.37;75.58;99946.44;6217459;23;20071;-84
2021/01/05 07:47:49;;;;;;;17.33;12.02;;;;;;;4.37;75.96;99943.81;6216928;23;20017;-84
2021/01/05 07:50:19;;;;;;;18.70;11.88;;;;;;;4.39;75.33;99944.63;6217080;23;20036;-84
2021/01/05 07:52:45;;;;;;;16.83;11.38;;;;;;;4.41;75.47;99948.06;6216888;23;20079;-84
2021/01/05 07:55:19;;;;;;;15.10;10.48;;;;;;;4.38;75.11;99943.75;6217195;23;20079;-85
2021/01/05 07:57:46;;;;;;;15.45;10.70;;;;;;;4.41;75.24;99954.09;6216720;23;20020;-85
2021/01/05 08:00:18;;;;;;;17.48;11.05;;;;;;;4.41;75.19;99946.28;6217022;23;20035;-85
2021/01/05 08:02:45;;;;;;;16.95;11.52;;;;;;;4.42;75.22;99945.38;6216927;23;20025;-85
2021/01/05 08:05:13;;;;;;;17.10;11.05;;;;;;;4.42;75.38;99944.53;6190216;23;20074;-85
2021/01/05 08:07:39;;;;;;;17.08;11.85;;;;;;;4.42;75.42;99950.59;6216956;23;20390;-85
2021/01/05 08:10:07;;;;;;;18.73;12.77;;;;;;;4.42;75.21;99954.97;6216373;23;20078;-84
2021/01/05 08:12:33;;;;;;;16.75;12.15;;;;;;;4.43;75.54;99956.66;6216303;23;20394;-84
2021/01/05 08:14:59;;;;;;;16.58;11.00;;;;;;;4.44;75.35;99958.38;6217037;23;20359;-84
2021/01/05 08:17:25;;;;;;;16.10;11.20;;;;;;;4.44;75.33;99945.34;6216618;23;20387;-84
2021/01/05 08:19:51;;;;;;;16.98;11.55;;;;;;;4.45;75.09;99946.19;6216685;23;20043;-84
2021/01/05 08:22:17;;;;;;;18.65;12.73;;;;;;;4.45;75.37;99954.03;6216298;23;20459;-84
2021/01/05 08:24:43;;;;;;;17.85;12.50;;;;;;;4.45;75.53;99956.63;6216503;23;20526;-84
2021/01/05 08:27:11;;;;;;;17.33;11.75;;;;;;;4.46;75.19;99956.59;6216702;23;20024;-84
2021/01/05 08:29:38;;;;;;;16.30;10.95;;;;;;;4.45;75.32;99961.84;6216821;23;20391;-84
2021/01/05 08:32:05;;;;;;;16.55;11.38;;;;;;;4.44;75.36;99966.19;6216548;23;20021;-84
2021/01/05 08:34:31;;;;;;;16.75;11.55;;;;;;;4.46;75.22;99973.97;6216021;23;20025;-85
2021/01/05 08:36:59;;;;;;;16.10;10.82;;;;;;;4.44;75.08;99963.56;6216395;23;20456;-85
2021/01/05 08:39:25;;;;;;;18.65;11.80;;;;;;;4.45;75.66;99961.84;6216255;23;20024;-84
2021/01/05 08:41:53;;;;;;;18.70;12.68;;;;;;;4.46;75.27;99967.00;6216669;23;20028;-84
2021/01/05 08:44:20;;;;;;;17.27;12.27;;;;;;;4.46;75.35;99972.22;6190193;23;20027;-84
2021/01/05 08:46:46;;;;;;;17.30;11.45;;;;;;;4.46;75.39;99967.00;6216457;23;20021;-84
2021/01/05 08:49:13;;;;;;;16.45;11.32;;;;;;;4.46;75.29;99974.84;6216080;23;20079;-84
2021/01/05 08:51:39;;;;;;;18.42;11.88;;;;;;;4.46;75.25;99980.03;6216542;23;20028;-84
2021/01/05 08:54:05;;;;;;;20.75;12.45;;;;;;;4.46;75.23;99972.22;6216300;23;20355;-84
2021/01/05 08:56:35;;;;;;;20.40;12.18;;;;;;;4.47;75.31;99976.53;6216550;23;20091;-84
2021/01/05 08:59:02;;;;;;;19.60;12.45;;;;;;;4.46;75.35;99972.22;6216471;23;20419;-85
2021/01/05 09:01:28;;;;;;;19.13;11.02;;;;;;;4.47;75.15;99984.34;6216502;23;20394;-84
2021/01/05 09:03:54;;;;;;;17.48;11.40;;;;;;;4.46;75.45;99967.00;6189795;23;20021;-84
2021/01/05 09:06:23;;;;;;;20.33;12.95;;;;;;;4.46;75.15;99980.03;6215914;23;20350;-84
2021/01/05 09:09:26;;;;;;;24.73;12.65;;;;;;;4.43;74.64;99988.81;6215880;23;20044;-84
2021/01/05 09:11:57;;;;;;;17.77;11.20;;;;;;;4.48;75.22;99980.84;6173855;23;20099;-83
2021/01/05 09:14:24;;;;;;;19.30;12.45;;;;;;;4.48;74.96;99980.84;6189314;23;20021;-84
2021/01/05 09:17:04;;;;;;;19.70;11.85;;;;;;;4.43;74.67;99994.03;6215874;23;20455;-84
2021/01/05 09:19:37;;;;;;;18.17;11.20;;;;;;;4.47;75.30;99996.53;6190000;23;20016;-84
2021/01/05 09:22:06;;;;;;;21.13;12.32;;;;;;;4.47;75.14;99994.78;6190145;23;20071;-83
2021/01/05 09:24:32;;;;;;;19.40;11.70;;;;;;;4.47;75.04;99997.38;6216937;23;20020;-84
2021/01/05 09:26:58;;;;;;;20.90;12.15;;;;;;;4.46;75.26;99998.28;6215646;23;20533;-84
2021/01/05 09:29:26;;;;;;;22.20;12.05;;;;;;;4.43;75.22;99998.38;6216128;23;20021;-84
2021/01/05 09:31:53;;;;;;;18.50;11.68;;;;;;;4.41;75.26;99997.56;6216129;23;20020;-83
2021/01/05 09:34:23;;;;;;;22.60;12.15;;;;;;;4.41;75.21;100000.19;6215998;23;20021;-84
2021/01/05 09:36:51;;;;;;;22.05;13.30;;;;;;;4.40;75.41;100001.91;6216143;23;20028;-84
2021/01/05 09:39:21;;;;;;;23.23;13.75;;;;;;;4.40;75.60;100006.25;6216095;23;20020;-84
2021/01/05 09:41:50;;;;;;;22.42;12.75;;;;;;;4.42;75.59;100004.50;6215708;23;20083;-84
2021/01/05 09:44:16;;;;;;;20.90;13.07;;;;;;;4.44;75.82;100002.69;6215707;23;20028;-84
2021/01/05 09:46:48;;;;;;;24.05;13.93;;;;;;;4.45;75.31;100011.38;6215704;23;20128;-84
2021/01/05 09:49:15;;;;;;;24.05;12.95;;;;;;;4.48;75.51;100008.69;6215584;23;20329;-84
2021/01/05 09:51:41;;;;;;;25.73;14.20;;;;;;;4.49;75.48;100013.00;6216204;23;20021;-84
2021/01/05 09:54:16;;;;;;;26.45;13.25;;;;;;;4.49;75.15;100011.22;6215860;23;20100;-84
2021/01/05 09:56:48;;;;;;;25.88;13.32;;;;;;;4.51;75.36;100001.63;6216108;23;20017;-84
2021/01/05 09:59:14;;;;;;;24.02;13.90;;;;;;;4.53;75.34;100012.84;6215662;23;20347;-84
2021/01/05 10:01:40;;;;;;;24.58;13.40;;;;;;;4.54;75.42;100005.88;6189237;23;20486;-84
2021/01/05 10:04:09;;;;;;;26.58;13.80;;;;;;;4.55;75.43;100005.84;6215850;23;20028;-84
2021/01/05 10:06:35;;;;;;;23.52;13.65;;;;;;;4.56;75.56;100009.28;6189250;23;20486;-84
2021/01/05 10:09:11;;;;;;;32.70;15.57;;;;;;;4.56;75.07;100002.34;6215927;23;20032;-84
2021/01/05 10:11:41;;;;;;;25.35;14.30;;;;;;;4.57;75.37;100000.59;6215549;23;20490;-84
2021/01/05 10:14:08;;;;;;;25.88;14.27;;;;;;;4.59;75.55;100004.00;6215707;23;20036;-84
2021/01/05 10:16:34;;;;;;;24.58;13.07;;;;;;;4.60;75.36;100004.88;6215913;23;20017;-84
2021/01/05 10:19:03;;;;;;;27.48;13.93;;;;;;;4.60;75.41;99999.66;6216073;23;20024;-84
2021/01/05 10:21:38;;;;;;;25.67;14.80;;;;;;;4.58;75.11;99997.09;6215666;23;20024;-85
2021/01/05 10:24:05;;;;;;;25.13;13.65;;;;;;;4.61;75.26;99996.13;6215367;23;20071;-84
2021/01/05 10:26:33;;;;;;;24.98;14.02;;;;;;;4.61;75.42;100003.97;6215979;23;20020;-84
2021/01/05 10:29:00;;;;;;;22.90;13.18;;;;;;;4.60;75.36;99997.03;6189023;23;20459;-84
2021/01/05 10:31:35;;;;;;;21.88;12.52;;;;;;;4.60;75.48;99997.03;6215560;23;20459;-84
2021/01/05 10:34:01;;;;;;;25.10;13.48;;;;;;;4.60;75.34;99989.22;6215373;23;20025;-85
2021/01/05 10:36:28;;;;;;;24.05;14.02;;;;;;;4.60;75.44;99994.44;6189252;23;20017;-84
2021/01/05 10:39:10;;;;;;;24.20;13.75;;;;;;;4.60;75.21;99999.66;6191855;23;20025;-84
2021/01/05 10:41:39;;;;;;;23.83;13.57;;;;;;;4.62;75.37;99993.50;6190265;23;20024;-84
2021/01/05 10:44:06;;;;;;;24.30;12.70;;;;;;;4.65;75.55;100002.97;6215853;23;20051;-83
2021/01/05 10:46:33;;;;;;;22.85;12.13;;;;;;;4.65;75.46;99997.75;6215835;23;20021;-84
2021/01/05 10:48:59;;;;;;;28.15;14.25;;;;;;;4.66;75.73;100002.94;6189585;23;20217;-83
2021/01/05 10:51:25;;;;;;;26.92;13.32;;;;;;;4.68;75.50;99997.69;6216003;23;20024;-83
2021/01/05 10:53:52;;;;;;;27.98;13.73;;;;;;;4.69;75.74;99994.19;6215578;23;20021;-84
2021/01/05 10:56:19;;;;;;;23.30;11.88;;;;;;;4.70;75.64;99995.88;6215286;23;20050;-83
2021/01/05 10:58:46;;;;;;;22.30;12.68;;;;;;;4.72;75.47;99993.22;6217458;23;20021;-84
2021/01/05 11:01:12;;;;;;;25.15;13.55;;;;;;;4.74;75.64;99987.06;6217759;23;20027;-84
2021/01/05 11:03:39;;;;;;;29.38;14.93;;;;;;;4.76;75.30;99990.50;6190632;23;20047;-84
2021/01/05 11:06:08;;;;;;;23.20;13.80;;;;;;;4.77;75.36;99993.94;6217607;23;20020;-84
2021/01/05 11:08:35;;;;;;;24.23;12.57;;;;;;;4.76;75.40;99987.91;6217499;23;20024;-84
2021/01/05 11:11:04;;;;;;;21.95;12.85;;;;;;;4.77;75.12;99981.78;6217748;23;20024;-84
2021/01/05 11:13:31;;;;;;;27.83;12.55;;;;;;;4.78;75.58;99975.66;6217322;23;20074;-84
2021/01/05 11:15:57;;;;;;;21.88;11.98;;;;;;;4.79;75.70;99982.56;6191053;23;20074;-86
2021/01/05 11:18:24;;;;;;;23.45;12.32;;;;;;;4.80;75.46;99971.25;6217204;23;20028;-84
2021/01/05 11:20:52;;;;;;;21.75;11.93;;;;;;;4.80;75.41;99971.25;6217585;23;20021;-85
2021/01/05 11:23:19;;;;;;;22.08;11.40;;;;;;;4.82;75.28;99965.97;6167765;23;20031;-84
2021/01/05 11:25:45;;;;;;;22.70;11.73;;;;;;;4.81;75.24;99959.91;6217496;23;20024;-84
2021/01/05 11:28:11;;;;;;;23.48;12.52;;;;;;;4.85;75.57;99962.44;6217241;23;20325;-84
2021/01/05 11:30:38;;;;;;;23.35;11.90;;;;;;;4.85;75.43;99958.06;6216662;23;20023;-84
2021/01/05 11:33:06;;;;;;;26.25;13.88;;;;;;;4.87;75.30;99955.41;6217002;23;20021;-84
2021/01/05 11:35:33;;;;;;;24.77;13.18;;;;;;;4.88;75.40;99962.31;6217384;23;20020;-84
2021/01/05 11:37:59;;;;;;;23.48;12.52;;;;;;;4.88;75.32;99959.72;6218417;23;20067;-89
2021/01/05 11:40:26;;;;;;;25.90;13.60;;;;;;;4.89;75.32;99958.81;6190949;23;20025;-85
2021/01/05 11:42:54;;;;;;;26.80;13.32;;;;;;;4.88;75.25;99960.59;6216641;23;20463;-84
2021/01/05 11:45:21;;;;;;;23.48;12.45;;;;;;;4.87;75.14;99953.66;6216819;23;20055;-84
2021/01/05 11:47:49;;;;;;;24.50;12.45;;;;;;;4.87;75.30;99947.59;6217255;23;20029;-84
2021/01/05 11:50:16;;;;;;;26.05;13.93;;;;;;;4.86;75.32;99944.09;6217048;23;20028;-84
2021/01/05 11:52:43;;;;;;;25.63;12.15;;;;;;;4.85;75.24;99938.97;6216940;23;20025;-84
2021/01/05 11:55:10;;;;;;;24.27;12.45;;;;;;;4.85;75.34;99949.41;6217351;23;20047;-84
2021/01/05 11:57:36;;;;;;;22.17;12.70;;;;;;;4.85;75.38;99946.78;6216754;23;20383;-84
2021/01/05 12:00:08;;;;;;;26.45;13.82;;;;;;;4.85;75.25;99938.97;6190580;23;20043;-84
2021/01/05 12:02:34;;;;;;;24.30;12.43;;;;;;;4.87;75.55;99934.53;6216866;23;20020;-83
2021/01/05 12:05:00;;;;;;;22.50;12.15;;;;;;;4.87;75.41;99931.94;6190774;23;20024;-84
2021/01/05 12:07:26;;;;;;;21.63;12.25;;;;;;;4.87;75.52;99931.94;6216451;23;20024;-84
2021/01/05 12:09:54;;;;;;;20.83;11.70;;;;;;;4.87;75.54;99929.31;6216216;23;20075;-84
2021/01/05 12:12:21;;;;;;;19.63;12.00;;;;;;;4.89;75.61;99927.50;6216345;23;20063;-84
2021/01/05 12:14:48;;;;;;;22.95;12.65;;;;;;;4.89;75.49;99923.16;6216493;23;20039;-84
2021/01/05 12:17:14;;;;;;;21.05;11.75;;;;;;;4.90;75.49;99924.84;6216496;23;20459;-84
2021/01/05 12:19:43;;;;;;;18.92;11.65;;;;;;;4.91;75.47;99915.28;6216556;23;20032;-84
2021/01/05 12:22:10;;;;;;;19.60;11.68;;;;;;;4.92;75.62;99919.59;6216676;23;20381;-84
2021/01/05 12:24:38;;;;;;;20.30;10.93;;;;;;;4.93;75.75;99918.69;6190526;23;20040;-84
2021/01/05 12:27:07;;;;;;;20.90;11.75;;;;;;;4.94;75.49;99916.03;6216712;23;20390;-84
2021/01/05 12:29:35;;;;;;;21.48;10.80;;;;;;;4.95;75.71;99922.13;6190582;23;20032;-84
2021/01/05 12:32:10;;;;;;;25.50;11.93;;;;;;;4.95;75.30;99919.50;6216055;23;20024;-83
2021/01/05 12:34:48;;;;;;;17.48;10.32;;;;;;;4.98;75.12;99916.81;6190324;23;20021;-84
2021/01/05 12:37:17;;;;;;;18.05;10.82;;;;;;;5.01;75.46;99914.09;6190456;23;20394;-84
2021/01/05 12:39:44;;;;;;;20.63;11.65;;;;;;;5.02;75.43;99928.88;6216596;23;20055;-84
2021/01/05 12:42:17;;;;;;;22.67;11.68;;;;;;;5.03;75.32;99925.34;6216026;23;20028;-83
2021/01/05 12:44:44;;;;;;;24.15;11.77;;;;;;;5.03;75.51;99922.75;6216280;23;20028;-84
2021/01/05 12:47:10;;;;;;;26.45;11.40;;;;;;;5.03;75.39;99921.88;6216503;23;20028;-84